Time;durP1;ratioP1;P1;durP2;ratioP2;P2;SDS_P1;SDS_P2;PMS_P1;PMS_P2;Temp;Humidity;BMP_temperature;BMP_pressure;BME280_temperature;BME280_humidity;BME280_pressure;Samples;Min_cycle;Max_cycle;Signal;HPM_P1;HPM_P2
2023/08/06 00:01:49;;;;;;;1.50;1.40;;;17.50;99.90;;;17.84;94.83;99737.53;5030985;28;20636;-66
2023/08/06 00:04:17;;;;;;;1.10;1.10;;;17.50;99.90;;;17.82;94.82;99728.16;5018901;28;20633;-67
2023/08/06 00:06:44;;;;;;;1.80;1.70;;;17.40;99.90;;;17.83;94.99;99727.16;5026083;28;20671;-65
2023/08/06 00:09:11;;;;;;;1.33;1.27;;;17.50;99.90;;;17.79;94.60;99713.50;5026383;28;20679;-65
2023/08/06 00:11:38;;;;;;;1.57;1.50;;;17.40;99.90;;;17.78;94.58;99716.34;5029889;28;20628;-66
2023/08/06 00:14:05;;;;;;;1.60;1.50;;;17.40;99.90;;;17.78;93.99;99711.06;5022767;28;20753;-66
2023/08/06 00:16:32;;;;;;;0.97;0.97;;;17.40;99.90;;;17.75;93.28;99709.59;5028797;28;20613;-65
2023/08/06 00:18:59;;;;;;;1.87;1.37;;;17.40;99.90;;;17.74;92.78;99700.00;5037866;28;20617;-69
2023/08/06 00:21:26;;;;;;;1.40;1.40;;;17.40;99.90;;;17.71;92.27;99704.84;5026409;28;21245;-67
2023/08/06 00:23:53;;;;;;;2.67;1.50;;;17.30;99.90;;;17.74;91.82;99688.63;5026316;28;20637;-69
2023/08/06 00:26:20;;;;;;;1.70;1.60;;;17.40;99.90;;;17.72;92.20;99677.44;5024874;28;20988;-65
2023/08/06 00:28:47;;;;;;;1.30;1.20;;;17.30;99.90;;;17.69;92.36;99670.72;5027416;28;20664;-68
2023/08/06 00:31:14;;;;;;;1.90;1.63;;;17.30;99.90;;;17.72;91.80;99674.81;5024102;28;20735;-67
2023/08/06 00:33:41;;;;;;;1.20;1.20;;;17.30;99.90;;;17.72;92.04;99677.44;5027308;28;20697;-67
2023/08/06 00:36:08;;;;;;;1.50;1.40;;;17.30;99.90;;;17.73;91.99;99668.53;5024812;28;20625;-66
2023/08/06 00:38:35;;;;;;;1.20;1.10;;;17.30;99.90;;;17.71;91.40;99667.91;5023242;28;21272;-66
2023/08/06 00:41:02;;;;;;;1.40;1.23;;;17.30;99.90;;;17.72;91.01;99662.44;5029126;28;20656;-66
2023/08/06 00:43:29;;;;;;;5.60;1.57;;;17.30;99.90;;;17.74;90.90;99667.53;5046588;28;20727;-65
2023/08/06 00:45:56;;;;;;;1.40;1.30;;;17.30;99.90;;;17.71;90.59;99662.63;5024561;28;21032;-66
2023/08/06 00:48:23;;;;;;;1.00;1.00;;;17.30;99.90;;;17.68;90.25;99663.81;5023895;28;20649;-69
2023/08/06 00:50:51;;;;;;;1.00;1.00;;;17.30;99.90;;;17.65;90.75;99663.34;5026776;28;21049;-64
2023/08/06 00:53:18;;;;;;;2.63;1.20;;;17.30;99.90;;;17.62;90.08;99663.69;5021283;28;20672;-66
2023/08/06 00:55:46;;;;;;;1.03;1.03;;;17.20;99.90;;;17.61;90.15;99662.06;5026927;28;20723;-66
2023/08/06 00:58:16;;;;;;;1.60;1.50;;;17.20;99.90;;;17.59;89.89;99658.78;5014289;28;20660;-66
2023/08/06 01:00:43;;;;;;;1.53;1.30;;;17.20;99.90;;;17.57;89.82;99660.75;5009794;28;20640;-66
2023/08/06 01:03:10;;;;;;;0.90;0.90;;;17.20;99.90;;;17.59;89.42;99659.59;5026955;28;20644;-66
2023/08/06 01:05:37;;;;;;;1.30;1.30;;;17.20;99.90;;;17.57;89.25;99656.31;5045596;28;20628;-64
2023/08/06 01:08:33;;;;;;;1.20;1.20;;;17.20;99.90;;;17.56;88.77;99640.66;5040245;28;21291;-65
2023/08/06 01:11:33;;;;;;;1.87;0.97;;;17.20;99.90;;;17.57;88.48;99637.03;5012540;28;20625;-67
2023/08/06 01:14:32;;;;;;;1.10;1.00;;;17.20;99.90;;;17.56;87.99;99644.13;5020556;28;20744;-70
2023/08/06 01:16:59;;;;;;;1.00;1.00;;;17.20;99.90;;;17.57;87.83;99647.56;5043807;28;20655;-65
2023/08/06 01:19:26;;;;;;;1.20;1.10;;;17.20;99.90;;;17.59;87.50;99637.69;5009717;28;20636;-65
2023/08/06 01:21:53;;;;;;;0.80;0.80;;;17.20;99.90;;;17.62;87.47;99642.59;5025264;28;20628;-66
2023/08/06 01:24:21;;;;;;;1.07;0.90;;;17.20;99.90;;;17.62;87.46;99632.88;5042472;28;20624;-66
2023/08/06 01:27:09;;;;;;;1.00;1.00;;;17.20;99.90;;;17.67;87.13;99633.16;5026639;28;20632;-65
2023/08/06 01:29:49;;;;;;;1.13;1.13;;;17.30;99.90;;;17.73;86.71;99636.88;5028040;28;20663;-66
2023/08/06 01:32:16;;;;;;;2.20;0.90;;;17.30;99.90;;;17.72;86.71;99629.97;5028870;28;20718;-67
2023/08/06 01:34:46;;;;;;;1.30;1.30;;;17.40;99.90;;;17.75;87.03;99633.06;5028707;28;20632;-65
2023/08/06 01:37:13;;;;;;;0.87;0.87;;;17.40;99.90;;;17.74;86.78;99630.59;5024548;28;20661;-66
2023/08/06 01:39:43;;;;;;;0.90;0.90;;;17.40;99.90;;;17.73;86.60;99621.06;5028029;28;20621;-65
2023/08/06 01:42:10;;;;;;;1.23;1.23;;;17.40;99.90;;;17.75;86.59;99627.81;5031927;28;20617;-70
2023/08/06 01:44:37;;;;;;;2.13;1.50;;;17.40;99.90;;;17.69;87.02;99625.06;5023279;28;20644;-66
2023/08/06 01:47:05;;;;;;;1.10;1.10;;;17.30;99.90;;;17.65;87.13;99635.13;5030289;28;20690;-67
2023/08/06 01:49:32;;;;;;;0.83;0.83;;;17.30;99.90;;;17.65;87.16;99621.16;5020403;28;20641;-65
2023/08/06 01:51:59;;;;;;;1.67;1.57;;;17.30;99.90;;;17.65;87.57;99627.22;5026542;28;20629;-64
2023/08/06 01:54:25;;;;;;;1.10;1.00;;;17.20;99.90;;;17.63;87.58;99638.97;5018603;28;20666;-64
2023/08/06 01:56:52;;;;;;;1.17;1.17;;;17.30;99.90;;;17.61;87.80;99631.22;5019404;28;20656;-64
2023/08/06 01:59:19;;;;;;;2.80;1.73;;;17.20;99.90;;;17.62;87.67;99640.78;5028513;28;20655;-65
2023/08/06 02:01:46;;;;;;;1.30;1.20;;;17.20;99.90;;;17.59;87.77;99637.69;5023254;28;20636;-68
2023/08/06 02:04:13;;;;;;;1.60;1.30;;;17.20;99.90;;;17.54;87.73;99640.03;5030138;28;20624;-65
2023/08/06 02:06:40;;;;;;;1.23;1.23;;;17.20;99.90;;;17.55;87.98;99639.03;5027442;28;20736;-65
2023/08/06 02:09:07;;;;;;;1.10;1.00;;;17.20;99.90;;;17.58;87.69;99628.13;5024138;28;20706;-67
2023/08/06 02:11:34;;;;;;;1.47;1.37;;;17.20;99.90;;;17.54;87.83;99627.69;5026603;28;20649;-65
2023/08/06 02:14:01;;;;;;;1.67;1.43;;;17.10;99.90;;;17.56;87.80;99622.22;5021579;28;20989;-66
2023/08/06 02:16:28;;;;;;;1.20;1.20;;;17.20;99.90;;;17.50;88.15;99620.28;5029727;28;20731;-65
2023/08/06 02:18:55;;;;;;;0.83;0.77;;;17.10;99.90;;;17.54;87.90;99617.13;5028888;28;20749;-68
2023/08/06 02:21:22;;;;;;;1.00;0.90;;;17.10;99.90;;;17.51;87.76;99609.56;5031372;28;20616;-66
2023/08/06 02:23:49;;;;;;;0.87;0.87;;;17.20;99.90;;;17.49;88.12;99608.88;5023740;28;20752;-67
2023/08/06 02:26:16;;;;;;;2.70;1.27;;;17.10;99.90;;;17.44;88.40;99602.53;5028691;28;21205;-65
2023/08/06 02:28:43;;;;;;;0.87;0.87;;;17.10;99.90;;;17.43;88.53;99604.34;5023222;28;20763;-65
2023/08/06 02:31:10;;;;;;;1.30;1.20;;;17.10;99.90;;;17.38;88.61;99606.66;5023310;28;20655;-65
2023/08/06 02:33:37;;;;;;;0.87;0.87;;;17.00;99.90;;;17.40;88.59;99604.69;5026968;28;20757;-66
2023/08/06 02:36:04;;;;;;;1.00;0.93;;;17.00;99.90;;;17.39;88.29;99602.22;5022318;28;20648;-65
2023/08/06 02:38:32;;;;;;;1.33;1.23;;;17.00;99.90;;;17.39;88.07;99599.59;5025300;28;21222;-67
2023/08/06 02:40:59;;;;;;;0.73;0.73;;;17.00;99.90;;;17.33;87.89;99595.03;5024128;28;21123;-64
2023/08/06 02:43:26;;;;;;;2.53;1.27;;;17.00;99.90;;;17.30;87.97;99590.94;5021703;28;20627;-65
2023/08/06 02:45:56;;;;;;;4.20;1.60;;;16.90;99.90;;;17.33;87.81;99589.75;5022258;28;20679;-64
2023/08/06 02:48:23;;;;;;;1.10;0.80;;;16.90;99.90;;;17.32;87.87;99593.38;5029153;28;20714;-67
2023/08/06 02:50:50;;;;;;;0.73;0.73;;;17.00;99.90;;;17.33;87.82;99590.59;5024616;28;20640;-64
2023/08/06 02:53:17;;;;;;;1.57;1.10;;;17.00;99.90;;;17.32;87.74;99588.94;5023287;28;20760;-64
2023/08/06 02:55:48;;;;;;;1.17;1.07;;;17.00;99.90;;;17.34;87.96;99594.84;5008272;28;20669;-66
2023/08/06 02:58:16;;;;;;;1.10;1.10;;;17.00;99.90;;;17.31;88.01;99592.59;5011307;28;20668;-66
2023/08/06 03:00:44;;;;;;;1.10;0.93;;;16.90;99.90;;;17.32;87.77;99585.47;5012414;28;20991;-65
2023/08/06 03:03:11;;;;;;;0.80;0.80;;;16.90;99.90;;;17.30;87.54;99576.94;5006242;28;20636;-64
2023/08/06 03:05:38;;;;;;;0.90;0.60;;;16.90;99.90;;;17.30;87.43;99579.56;5029834;28;20685;-65
2023/08/06 03:08:05;;;;;;;1.03;1.03;;;17.00;99.90;;;17.29;87.25;99575.31;5029669;28;21066;-64
2023/08/06 03:10:32;;;;;;;0.90;0.90;;;16.90;99.90;;;17.30;87.42;99574.28;5026468;28;20736;-66
2023/08/06 03:13:03;;;;;;;3.70;0.80;;;16.90;99.90;;;17.31;86.87;99570.66;5024004;28;21344;-65
2023/08/06 03:15:30;;;;;;;1.37;1.13;;;16.90;99.90;;;17.31;87.20;99568.03;5031478;28;20620;-64
2023/08/06 03:17:57;;;;;;;1.10;1.10;;;17.00;99.90;;;17.32;86.96;99559.09;5017364;28;20675;-65
2023/08/06 03:20:25;;;;;;;0.67;0.67;;;17.00;99.90;;;17.30;86.84;99566.38;5028662;28;20624;-67
2023/08/06 03:22:52;;;;;;;1.23;1.13;;;16.90;99.90;;;17.24;87.05;99565.28;5015803;28;20636;-65
2023/08/06 03:25:19;;;;;;;12.83;1.00;;;16.90;99.90;;;17.23;87.78;99565.47;5018261;28;20695;-67
2023/08/06 03:27:46;;;;;;;4.10;1.10;;;16.90;99.90;;;17.21;87.79;99565.63;5028263;28;20702;-65
2023/08/06 03:30:12;;;;;;;0.87;0.70;;;16.90;99.90;;;17.18;88.50;99571.28;5026031;28;20624;-65
2023/08/06 03:32:39;;;;;;;1.70;1.40;;;16.80;99.90;;;17.15;88.92;99565.53;5023717;28;21262;-66
2023/08/06 03:35:07;;;;;;;0.77;0.77;;;16.80;99.90;;;17.11;89.21;99570.34;5018783;28;20639;-65
2023/08/06 03:37:34;;;;;;;1.00;1.00;;;16.70;99.90;;;17.08;89.76;99566.25;5027724;28;21456;-66
2023/08/06 03:40:01;;;;;;;0.83;0.67;;;16.70;99.90;;;17.13;89.90;99563.06;5022413;28;20628;-64
2023/08/06 03:42:28;;;;;;;0.83;0.83;;;16.80;99.90;;;17.14;89.83;99563.91;5026644;28;20629;-64
2023/08/06 03:44:54;;;;;;;1.27;1.00;;;16.80;99.90;;;17.08;90.86;99560.97;5023008;28;20672;-65
2023/08/06 03:47:21;;;;;;;0.90;0.90;;;16.70;99.90;;;17.04;91.61;99572.84;5022937;28;20760;-65
2023/08/06 03:49:49;;;;;;;0.70;0.70;;;16.70;99.90;;;17.05;91.44;99561.34;5022324;28;20631;-66
2023/08/06 03:52:16;;;;;;;1.43;0.83;;;16.70;99.90;;;17.06;91.96;99562.97;5026648;28;21220;-67
2023/08/06 03:54:43;;;;;;;1.00;1.00;;;16.70;99.90;;;17.07;91.94;99569.06;5027995;28;20672;-66
2023/08/06 03:57:10;;;;;;;2.07;1.50;;;16.70;99.90;;;17.09;91.53;99567.06;5015905;28;20722;-65
2023/08/06 03:59:37;;;;;;;0.97;0.97;;;16.70;99.90;;;17.13;91.32;99568.34;5026928;28;20616;-64
2023/08/06 04:02:04;;;;;;;0.70;0.70;;;16.80;99.90;;;17.17;91.13;99561.72;5020085;28;20669;-64
2023/08/06 04:04:31;;;;;;;2.13;0.63;;;16.80;99.90;;;17.20;90.24;99569.28;5026177;28;20724;-64
2023/08/06 04:06:58;;;;;;;0.93;0.90;;;16.90;99.90;;;17.20;89.43;99566.66;5026667;28;20661;-64
2023/08/06 04:09:25;;;;;;;0.67;0.67;;;16.90;99.90;;;17.23;89.41;99571.53;5029250;28;20634;-66
2023/08/06 04:11:52;;;;;;;1.80;1.70;;;16.90;99.90;;;17.25;89.40;99571.38;5020256;28;20635;-65
2023/08/06 04:14:19;;;;;;;1.30;0.80;;;16.90;99.90;;;17.23;89.44;99570.75;5031291;28;21063;-65
2023/08/06 04:16:46;;;;;;;0.80;0.80;;;16.90;99.90;;;17.24;88.81;99569.72;5028188;28;20728;-64
2023/08/06 04:19:13;;;;;;;0.67;0.67;;;16.90;99.90;;;17.22;89.08;99564.66;5023841;28;20629;-65
2023/08/06 04:21:40;;;;;;;0.63;0.63;;;16.90;99.90;;;17.26;88.97;99565.09;5029518;28;20743;-64
2023/08/06 04:24:07;;;;;;;0.57;0.57;;;16.90;99.90;;;17.24;89.23;99564.47;5031968;28;20628;-68
2023/08/06 04:26:33;;;;;;;0.53;0.53;;;16.90;99.90;;;17.23;89.48;99565.47;5028461;28;20664;-66
2023/08/06 04:29:00;;;;;;;0.70;0.70;;;16.90;99.90;;;17.16;90.01;99565.38;5031874;28;20645;-63
2023/08/06 04:31:29;;;;;;;0.80;0.80;;;16.80;99.90;;;17.12;90.56;99564.09;5024400;28;20641;-65
2023/08/06 04:33:55;;;;;;;0.80;0.80;;;16.80;99.90;;;17.12;91.26;99564.09;5032271;28;20668;-65
2023/08/06 04:36:22;;;;;;;0.90;0.77;;;16.80;99.90;;;17.15;91.23;99557.63;5023519;28;20628;-64
2023/08/06 04:38:49;;;;;;;2.00;0.70;;;16.80;99.90;;;17.15;91.35;99554.97;5025271;28;20648;-64
2023/08/06 04:41:17;;;;;;;0.70;0.70;;;16.80;99.90;;;17.15;90.84;99558.44;5027036;28;20663;-65
2023/08/06 04:43:44;;;;;;;0.57;0.57;;;16.80;99.90;;;17.16;90.62;99559.25;5028453;28;20779;-65
2023/08/06 04:46:11;;;;;;;0.50;0.50;;;16.80;99.90;;;17.16;90.11;99559.25;5031815;28;20677;-64
2023/08/06 04:48:38;;;;;;;1.00;0.80;;;16.80;99.90;;;17.16;90.29;99551.34;5032072;28;20739;-64
2023/08/06 04:51:05;;;;;;;0.93;0.63;;;16.80;99.90;;;17.18;90.35;99557.28;5033134;28;20674;-65
2023/08/06 04:53:32;;;;;;;0.70;0.70;;;16.80;99.90;;;17.18;90.71;99552.81;5027538;28;20762;-65
2023/08/06 04:55:59;;;;;;;1.17;0.67;;;16.80;99.90;;;17.13;91.31;99556.97;5022062;28;20670;-67
2023/08/06 04:58:26;;;;;;;0.70;0.70;;;16.80;99.90;;;17.11;91.94;99561.59;5013899;28;20664;-68
2023/08/06 05:00:54;;;;;;;0.67;0.67;;;16.80;99.90;;;17.09;92.43;99564.44;5028314;28;20736;-66
2023/08/06 05:03:21;;;;;;;0.53;0.53;;;16.70;99.90;;;17.05;93.02;99561.34;5023882;28;20651;-64
2023/08/06 05:05:47;;;;;;;0.60;0.60;;;16.70;99.90;;;17.06;94.04;99565.59;5027535;28;20731;-65
2023/08/06 05:08:18;;;;;;;0.50;0.50;;;16.70;99.90;;;17.08;94.09;99565.41;5018502;28;20660;-67
2023/08/06 05:10:45;;;;;;;0.70;0.70;;;16.70;99.90;;;17.08;94.56;99570.69;5015669;28;20636;-68
2023/08/06 05:13:13;;;;;;;0.93;0.77;;;16.80;99.90;;;17.02;94.24;99564.31;5024104;28;20700;-64
2023/08/06 05:15:42;;;;;;;0.63;0.63;;;16.70;99.90;;;16.99;95.08;99561.22;5020708;28;21085;-65
2023/08/06 05:18:09;;;;;;;0.50;0.50;;;16.70;99.90;;;16.91;95.52;99567.34;5031223;28;20648;-66
2023/08/06 05:20:38;;;;;;;0.70;0.70;;;16.60;99.90;;;16.85;95.25;99562.78;5023109;28;20749;-65
2023/08/06 05:23:05;;;;;;;0.50;0.50;;;16.50;99.90;;;16.84;94.70;99563.81;5026137;28;20723;-67
2023/08/06 05:25:32;;;;;;;0.63;0.63;;;16.50;99.90;;;16.87;94.62;99567.88;5023394;28;20690;-68
2023/08/06 05:27:59;;;;;;;0.40;0.40;;;16.50;99.90;;;16.90;93.74;99572.81;5028023;28;20683;-65
2023/08/06 05:30:26;;;;;;;0.43;0.43;;;16.50;99.90;;;16.88;93.50;99570.38;5026196;28;21383;-66
2023/08/06 05:32:53;;;;;;;0.60;0.40;;;16.50;99.90;;;16.92;93.17;99560.28;5023289;28;20705;-65
2023/08/06 05:35:20;;;;;;;0.40;0.40;;;16.60;99.90;;;16.96;92.64;99565.03;5028496;28;21238;-66
2023/08/06 05:37:48;;;;;;;0.50;0.50;;;16.60;99.90;;;16.97;92.54;99579.81;5025455;28;20688;-65
2023/08/06 05:40:14;;;;;;;0.40;0.40;;;16.60;99.90;;;17.01;91.98;99577.69;5025690;28;20632;-66
2023/08/06 05:42:41;;;;;;;0.30;0.30;;;16.70;99.90;;;17.00;91.76;99570.75;5029044;28;20645;-65
2023/08/06 05:45:09;;;;;;;0.40;0.40;;;16.70;99.90;;;16.96;91.03;99570.28;5021918;28;20646;-63
2023/08/06 05:47:36;;;;;;;0.40;0.40;;;16.70;99.90;;;16.97;91.38;99569.28;5021494;28;20692;-65
2023/08/06 05:50:04;;;;;;;0.70;0.50;;;16.60;99.90;;;16.98;90.59;99570.09;5028371;28;20686;-64
2023/08/06 05:52:31;;;;;;;0.40;0.40;;;16.60;99.90;;;16.95;90.75;99587.09;5026368;28;21125;-65
2023/08/06 05:54:57;;;;;;;0.30;0.30;;;16.60;99.90;;;16.96;91.07;99585.28;5025769;28;20676;-67
2023/08/06 05:57:24;;;;;;;2.70;0.40;;;16.60;99.90;;;16.95;90.93;99587.09;5042503;28;20747;-67
2023/08/06 05:59:51;;;;;;;0.40;0.40;;;16.60;99.90;;;16.93;91.11;99589.06;5025847;28;20730;-66
2023/08/06 06:02:18;;;;;;;0.40;0.40;;;16.60;99.90;;;16.90;91.26;99586.81;5025953;28;20706;-66
2023/08/06 06:04:45;;;;;;;0.40;0.40;;;16.50;99.90;;;16.92;91.16;99587.44;5027770;28;20651;-65
2023/08/06 06:07:13;;;;;;;0.60;0.60;;;16.50;99.90;;;16.88;91.41;99583.53;5029909;28;20693;-67
2023/08/06 06:09:40;;;;;;;0.53;0.53;;;16.50;99.90;;;16.84;91.71;99584.06;5022123;28;20695;-67
2023/08/06 06:12:07;;;;;;;0.47;0.47;;;16.50;99.90;;;16.78;92.17;99584.75;5025280;28;20665;-65
2023/08/06 06:14:34;;;;;;;0.30;0.30;;;16.40;99.90;;;16.79;92.44;99586.38;5025001;28;20666;-65
2023/08/06 06:17:01;;;;;;;1.37;0.60;;;16.50;99.90;;;16.72;92.76;99590.69;5021062;28;20664;-64
2023/08/06 06:19:28;;;;;;;0.40;0.37;;;16.40;99.90;;;16.66;93.17;99592.22;5027839;28;20642;-64
2023/08/06 06:21:57;;;;;;;1.63;0.50;;;16.30;99.90;;;16.65;93.63;99595.06;5021524;28;20628;-67
2023/08/06 06:24:24;;;;;;;0.33;0.30;;;16.30;99.90;;;16.68;93.35;99590.25;5029700;28;21085;-66
2023/08/06 06:26:51;;;;;;;0.43;0.43;;;16.40;99.90;;;16.66;93.73;99581.69;5030010;28;20699;-66
2023/08/06 06:29:18;;;;;;;0.60;0.50;;;16.30;99.90;;;16.68;93.63;99590.25;5023896;28;20706;-64
2023/08/06 06:31:45;;;;;;;0.87;0.87;;;16.40;99.90;;;16.65;93.88;99601.13;5027734;28;20723;-65
2023/08/06 06:34:12;;;;;;;0.80;0.80;;;16.30;99.90;;;16.67;93.79;99599.16;5023951;28;20804;-65
2023/08/06 06:36:39;;;;;;;0.40;0.40;;;16.30;99.90;;;16.69;93.41;99591.06;5012695;28;20629;-66
2023/08/06 06:39:06;;;;;;;0.83;0.40;;;16.30;99.90;;;16.68;93.56;99602.59;5013710;28;20699;-68
2023/08/06 06:41:33;;;;;;;0.50;0.50;;;16.40;99.90;;;16.68;93.71;99603.41;5015359;28;20633;-66
2023/08/06 06:44:00;;;;;;;0.40;0.40;;;16.30;99.90;;;16.66;93.82;99601.94;5014054;28;20665;-65
2023/08/06 06:46:27;;;;;;;0.60;0.60;;;16.30;99.90;;;16.62;93.78;99604.09;5016586;28;21221;-66
2023/08/06 06:48:53;;;;;;;0.40;0.40;;;16.30;99.90;;;16.67;93.70;99596.53;5024542;28;20652;-66
2023/08/06 06:51:20;;;;;;;0.50;0.40;;;16.30;99.90;;;16.73;93.36;99592.34;5022294;28;21265;-64
2023/08/06 06:53:47;;;;;;;2.53;0.67;;;16.40;99.90;;;16.75;92.78;99607.00;5021400;28;20759;-64
2023/08/06 06:56:14;;;;;;;0.50;0.50;;;16.40;99.90;;;16.81;93.06;99605.47;5023618;28;20663;-65
2023/08/06 06:58:41;;;;;;;0.50;0.50;;;16.40;99.90;;;16.81;93.02;99602.84;5019347;28;20747;-66
2023/08/06 07:01:11;;;;;;;0.37;0.37;;;16.40;99.90;;;16.82;92.67;99607.13;5023739;28;20711;-66
2023/08/06 07:03:38;;;;;;;0.63;0.57;;;16.50;99.90;;;16.90;92.45;99607.88;5024665;28;21104;-65
2023/08/06 07:06:06;;;;;;;0.40;0.40;;;16.50;99.90;;;16.95;91.87;99608.16;5029842;28;20624;-68
2023/08/06 07:08:33;;;;;;;0.70;0.40;;;16.60;99.90;;;16.98;91.89;99602.56;5022026;28;20660;-67
2023/08/06 07:11:05;;;;;;;0.40;0.40;;;16.60;99.90;;;16.98;92.26;99605.19;5030722;28;20694;-65
2023/08/06 07:13:33;;;;;;;0.70;0.40;;;16.60;99.90;;;17.00;92.18;99608.47;5028248;28;20648;-65
2023/08/06 07:16:00;;;;;;;0.40;0.40;;;16.60;99.90;;;17.06;92.26;99602.50;5028481;28;20616;-65
2023/08/06 07:18:28;;;;;;;0.40;0.40;;;16.70;99.90;;;17.12;92.26;99600.16;5030309;28;20668;-68
2023/08/06 07:20:55;;;;;;;1.10;0.50;;;16.70;99.90;;;17.21;90.43;99596.44;5022361;28;20644;-65
2023/08/06 07:23:25;;;;;;;0.30;0.30;;;16.90;99.90;;;17.23;90.67;99605.00;5023490;28;21347;-65
2023/08/06 07:25:52;;;;;;;0.60;0.50;;;16.90;99.90;;;17.25;91.41;99606.44;5020514;28;20660;-69
2023/08/06 07:28:19;;;;;;;0.53;0.53;;;16.90;99.90;;;17.33;91.47;99595.88;5039156;28;20746;-67
2023/08/06 07:30:46;;;;;;;0.50;0.40;;;16.90;99.90;;;17.46;91.80;99595.25;5023282;28;20654;-66
2023/08/06 07:33:13;;;;;;;0.57;0.50;;;17.10;99.90;;;17.58;90.04;99609.66;5024208;28;21249;-65
2023/08/06 07:35:40;;;;;;;0.50;0.50;;;17.20;99.90;;;17.67;88.81;99603.31;5020647;28;20771;-65
2023/08/06 07:38:07;;;;;;;0.40;0.40;;;17.30;99.90;;;17.72;87.19;99606.22;5022801;28;20696;-66
2023/08/06 07:40:37;;;;;;;0.50;0.40;;;17.40;99.90;;;17.73;87.11;99607.88;5023008;28;21312;-67
2023/08/06 07:43:04;;;;;;;0.40;0.40;;;17.40;99.90;;;17.74;87.09;99607.69;5026608;28;20663;-67
2023/08/06 07:45:35;;;;;;;0.50;0.40;;;17.40;99.90;;;17.72;87.50;99611.50;5026876;28;20991;-66
2023/08/06 07:48:03;;;;;;;0.40;0.40;;;17.40;99.90;;;17.72;87.14;99617.59;5021018;28;20763;-68
2023/08/06 07:50:30;;;;;;;0.40;0.40;;;17.40;99.90;;;17.74;87.33;99609.50;5033677;28;20658;-68
2023/08/06 07:52:57;;;;;;;0.30;0.30;;;17.40;99.90;;;17.80;87.63;99606.94;5029453;28;20643;-65
2023/08/06 07:55:25;;;;;;;0.60;0.30;;;17.40;99.90;;;17.83;88.30;99609.25;5022502;28;21343;-66
2023/08/06 07:57:53;;;;;;;0.30;0.30;;;17.50;99.90;;;17.91;88.77;99610.97;5019006;28;20660;-66
2023/08/06 08:00:20;;;;;;;0.40;0.40;;;17.50;99.90;;;17.93;88.93;99608.16;5030515;28;21190;-66
2023/08/06 08:02:47;;;;;;;0.30;0.30;;;17.60;99.90;;;17.95;89.47;99617.53;5021562;28;20748;-67
2023/08/06 08:05:14;;;;;;;0.50;0.50;;;17.60;99.90;;;17.95;89.79;99606.16;5019406;28;20671;-66
2023/08/06 08:07:41;;;;;;;0.40;0.40;;;17.60;99.90;;;18.05;89.91;99598.78;5028087;28;20676;-67
2023/08/06 08:10:08;;;;;;;0.30;0.30;;;17.70;99.90;;;18.31;89.99;99607.88;5029938;28;20690;-67
2023/08/06 08:12:35;;;;;;;0.50;0.50;;;17.90;99.90;;;18.65;89.38;99598.53;5030705;28;20632;-67
2023/08/06 08:15:03;;;;;;;0.40;0.40;;;18.20;99.90;;;18.93;87.32;99596.81;5024730;28;20687;-69
2023/08/06 08:17:30;;;;;;;0.50;0.40;;;18.50;99.90;;;19.02;84.38;99596.47;5025183;28;20691;-67
2023/08/06 08:19:57;;;;;;;0.30;0.30;;;18.60;99.90;;;19.01;82.41;99586.91;5029672;28;20636;-67
2023/08/06 08:22:24;;;;;;;0.43;0.43;;;18.70;99.90;;;18.98;81.12;99587.28;5032292;28;20715;-67
2023/08/06 08:24:51;;;;;;;0.50;0.50;;;18.60;99.90;;;19.01;81.53;99586.91;5027228;28;20682;-67
2023/08/06 08:27:18;;;;;;;0.50;0.50;;;18.60;99.90;;;19.20;81.85;99582.81;5026975;28;20662;-64
2023/08/06 08:29:45;;;;;;;0.50;0.50;;;18.80;99.90;;;19.32;80.65;99589.22;5016608;28;20644;-66
2023/08/06 08:32:12;;;;;;;0.47;0.47;;;18.90;99.90;;;19.38;78.91;99579.75;5030581;28;20728;-66
2023/08/06 08:34:39;;;;;;;0.60;0.60;;;19.00;99.90;;;19.39;78.08;99576.06;5025182;28;20672;-66
2023/08/06 08:37:06;;;;;;;0.50;0.50;;;19.00;99.90;;;19.37;78.28;99578.09;5026744;28;20710;-67
2023/08/06 08:39:33;;;;;;;0.47;0.47;;;19.00;99.90;;;19.38;78.15;99580.53;5025100;28;20640;-67
2023/08/06 08:42:01;;;;;;;0.50;0.50;;;19.00;99.90;;;19.31;78.88;99579.66;5027545;28;20620;-63
2023/08/06 08:44:29;;;;;;;0.40;0.40;;;19.00;99.90;;;19.33;79.14;99572.34;5020671;28;20648;-66
2023/08/06 08:46:56;;;;;;;0.40;0.40;;;19.00;99.90;;;19.38;79.68;99574.44;5028380;28;20660;-65
2023/08/06 08:49:24;;;;;;;0.40;0.40;;;19.10;99.90;;;19.31;79.42;99572.50;5026871;28;20636;-66
2023/08/06 08:51:54;;;;;;;0.80;0.40;;;19.00;99.90;;;19.21;79.82;99576.50;5031565;28;20632;-67
2023/08/06 08:54:24;;;;;;;0.40;0.40;;;18.90;99.90;;;19.16;80.59;99576.28;5027061;28;20676;-66
2023/08/06 08:56:51;;;;;;;0.40;0.40;;;18.80;99.90;;;19.24;80.92;99576.97;5023572;28;21141;-67
2023/08/06 08:59:18;;;;;;;0.60;0.40;;;18.90;99.90;;;19.45;80.34;99580.59;5027543;28;20750;-68
2023/08/06 09:01:51;;;;;;;0.40;0.40;;;19.00;99.90;;;19.66;80.43;99588.47;5028977;28;20624;-67
2023/08/06 09:04:20;;;;;;;1.27;0.50;;;19.20;99.90;;;19.76;79.73;99581.81;5030564;28;20628;-66
2023/08/06 09:06:50;;;;;;;0.43;0.43;;;19.30;99.90;;;19.73;78.34;99573.47;5030284;28;21017;-66
2023/08/06 09:09:27;;;;;;;0.40;0.40;;;19.30;99.90;;;19.60;74.03;99583.97;5023377;28;21223;-66
2023/08/06 09:12:00;;;;;;;0.40;0.40;;;19.30;99.90;;;19.57;73.71;99581.72;5033752;28;20628;-66
2023/08/06 09:14:26;;;;;;;0.30;0.30;;;19.20;99.90;;;19.58;72.54;99581.50;5020108;28;20759;-68
2023/08/06 09:16:54;;;;;;;0.67;0.40;;;19.20;99.90;;;19.60;72.30;99579.50;5022861;28;20667;-66
2023/08/06 09:19:21;;;;;;;0.30;0.30;;;19.20;99.90;;;19.66;72.44;99572.59;5027089;28;20646;-67
2023/08/06 09:21:51;;;;;;;0.30;0.30;;;19.30;99.90;;;19.73;72.07;99576.94;5030545;28;20711;-66
2023/08/06 09:24:19;;;;;;;0.30;0.30;;;19.30;99.90;;;19.82;71.46;99573.13;5023484;28;20636;-63
2023/08/06 09:26:46;;;;;;;0.33;0.33;;;19.40;99.90;;;19.85;71.15;99572.72;5030419;28;20663;-66
2023/08/06 09:29:13;;;;;;;0.83;0.40;;;19.50;99.90;;;19.81;71.11;99574.13;5020168;28;20648;-65
2023/08/06 09:31:45;;;;;;;0.40;0.40;;;19.50;99.90;;;19.77;71.94;99575.53;5028333;28;20640;-66
2023/08/06 09:34:16;;;;;;;0.40;0.40;;;19.40;99.90;;;19.75;72.01;99574.91;5019418;28;21212;-65
2023/08/06 09:36:47;;;;;;;0.40;0.40;;;19.40;99.90;;;19.76;71.95;99575.72;5022323;28;20632;-67
2023/08/06 09:39:16;;;;;;;0.43;0.43;;;19.40;99.90;;;19.77;71.88;99580.81;5030954;28;20679;-65
2023/08/06 09:41:44;;;;;;;0.43;0.43;;;19.40;99.90;;;19.85;71.02;99585.13;5025663;28;20640;-65
2023/08/06 09:44:19;;;;;;;0.30;0.30;;;19.50;99.90;;;19.94;72.21;99586.63;5021076;28;20694;-66
2023/08/06 09:46:51;;;;;;;0.40;0.40;;;19.60;99.90;;;20.02;73.23;99589.91;5028373;28;21098;-66
2023/08/06 09:49:24;;;;;;;0.50;0.50;;;19.70;99.90;;;20.09;73.23;99596.09;5022351;28;20629;-65
2023/08/06 09:51:53;;;;;;;0.30;0.30;;;19.80;99.90;;;20.04;73.21;99592.38;5022334;28;20636;-65
2023/08/06 09:54:22;;;;;;;0.40;0.40;;;19.70;99.90;;;19.95;74.90;99594.34;5024477;28;20629;-66
2023/08/06 09:56:55;;;;;;;0.40;0.40;;;19.60;99.90;;;20.04;75.40;99598.50;5014905;28;20644;-64
2023/08/06 09:59:24;;;;;;;0.30;0.30;;;19.70;99.90;;;20.12;74.84;99595.66;5018146;28;20707;-67
2023/08/06 10:01:51;;;;;;;0.30;0.30;;;19.80;99.90;;;20.11;74.23;99598.53;5017418;28;20726;-66
2023/08/06 10:04:20;;;;;;;0.30;0.30;;;19.80;99.90;;;20.01;72.98;99593.59;5038734;28;20648;-66
2023/08/06 10:06:53;;;;;;;0.40;0.40;;;19.70;99.90;;;19.95;73.08;99599.66;5026988;28;20640;-67
2023/08/06 10:09:20;;;;;;;0.40;0.37;;;19.70;99.90;;;19.90;72.69;99596.78;5026552;28;20625;-68
2023/08/06 10:11:53;;;;;;;0.40;0.40;;;19.60;99.90;;;19.75;72.90;99604.03;5017849;28;20628;-65
2023/08/06 10:14:32;;;;;;;0.40;0.30;;;19.50;99.90;;;19.63;73.43;99604.75;5014425;28;20660;-66
2023/08/06 10:17:00;;;;;;;0.30;0.30;;;19.30;99.90;;;19.41;74.26;99605.78;5026101;28;20662;-65
2023/08/06 10:19:29;;;;;;;0.40;0.40;;;19.10;99.90;;;19.26;74.34;99611.13;5024989;28;20638;-68
2023/08/06 10:22:12;;;;;;;0.40;0.40;;;19.00;99.90;;;19.17;75.19;99610.44;5018925;28;20721;-66
2023/08/06 10:25:01;;;;;;;0.40;0.40;;;18.90;99.90;;;19.07;75.69;99603.84;5027244;28;20643;-65